Time;durP1;ratioP1;P1;durP2;ratioP2;P2;SDS_P1;SDS_P2;PMS_P1;PMS_P2;Temp;Humidity;BMP_temperature;BMP_pressure;BME280_temperature;BME280_humidity;BME280_pressure;Samples;Min_cycle;Max_cycle;Signal;HPM_P1;HPM_P2
2021/12/09 00:01:36;;;;;;;;;3.25;3.25;;;;;3.18;73.74;100230.31;4963720;28;45319;-69
2021/12/09 00:04:05;;;;;;;;;5.00;3.00;;;;;3.09;74.02;100220.38;4963852;28;47689;-69
2021/12/09 00:06:32;;;;;;;;;3.50;2.25;;;;;3.09;73.55;100223.88;4959452;28;45460;-69
2021/12/09 00:09:04;;;;;;;;;3.75;2.00;;;;;3.13;73.99;100235.34;4971803;28;45545;-69
2021/12/09 00:11:30;;;;;;;;;4.00;2.00;;;;;2.87;73.42;100197.63;4959811;28;45170;-69
2021/12/09 00:13:56;;;;;;;;;3.25;3.25;;;;;3.00;74.25;100213.03;4970397;28;45200;-69
2021/12/09 00:16:22;;;;;;;;;3.00;2.50;;;;;3.04;73.72;100224.47;4959271;28;45601;-69
2021/12/09 00:18:48;;;;;;;;;3.50;2.75;;;;;3.03;73.79;100220.09;4964418;28;45256;-69
2021/12/09 00:21:13;;;;;;;;;5.50;2.00;;;;;2.99;73.85;100212.94;4959651;28;45383;-69
2021/12/09 00:23:39;;;;;;;;;3.75;2.00;;;;;3.07;73.61;100229.84;4965233;28;45938;-69
2021/12/09 00:26:04;;;;;;;;;2.00;2.00;;;;;3.05;73.70;100234.09;4960487;28;47061;-70
2021/12/09 00:28:30;;;;;;;;;3.25;2.00;;;;;3.03;73.09;100234.03;4964420;28;45316;-70
2021/12/09 00:30:55;;;;;;;;;3.25;2.00;;;;;2.87;73.99;100210.66;4959212;28;45343;-69
2021/12/09 00:33:21;;;;;;;;;1.00;1.00;;;;;2.93;73.99;100229.22;4961614;28;46086;-69
2021/12/09 00:35:59;;;;;;;;;2.00;2.00;;;;;3.00;73.82;100244.34;4973986;28;47106;-69
2021/12/09 00:38:36;;;;;;;;;1.50;0.00;;;;;2.95;73.80;100230.19;4959606;28;45386;-69
2021/12/09 00:41:06;;;;;;;;;2.50;2.50;;;;;2.96;74.09;100229.34;4992141;28;45277;-69
2021/12/09 00:43:34;;;;;;;;;3.00;1.75;;;;;2.99;74.10;100246.88;4963942;28;45462;-69
2021/12/09 00:45:59;;;;;;;;;2.25;1.00;;;;;2.94;73.29;100243.16;5003061;28;45544;-69
2021/12/09 00:48:26;;;;;;;;;2.00;2.00;;;;;2.71;73.91;100205.56;4996492;27;45225;-69
2021/12/09 00:54:16;;;;;;;;;1.00;0.50;;;;;2.87;74.64;100242.88;4970154;28;45240;-69
2021/12/09 00:56:41;;;;;;;;;4.00;2.00;;;;;2.94;74.21;100245.75;4958913;28;45628;-69
2021/12/09 01:05:51;;;;;;;;;2.00;1.00;;;;;3.01;74.29;100247.84;4975655;28;45418;-69
2021/12/09 01:08:16;;;;;;;;;1.25;1.25;;;;;2.92;74.14;100233.53;4988429;28;46640;-69
2021/12/09 01:10:42;;;;;;;;;0.75;0.00;;;;;2.96;74.19;100233.69;4959162;28;45336;-69
2021/12/09 01:13:08;;;;;;;;;0.25;0.25;;;;;3.01;73.72;100237.41;4971547;28;45399;-69
2021/12/09 01:15:34;;;;;;;;;1.50;1.00;;;;;2.99;74.11;100242.53;4958862;28;45186;-69
2021/12/09 01:18:00;;;;;;;;;0.50;0.50;;;;;2.92;74.29;100233.53;4958827;28;46481;-69
2021/12/09 01:20:26;;;;;;;;;0.50;0.50;;;;;3.07;73.74;100262.06;4957679;28;45320;-69
2021/12/09 01:22:54;;;;;;;;;3.50;1.00;;;;;3.04;73.85;100258.44;4957498;28;45477;-69
2021/12/09 01:25:21;;;;;;;;;1.00;1.00;;;;;3.04;74.02;100261.94;4958938;28;45340;-69
2021/12/09 01:27:49;;;;;;;;;1.00;1.00;;;;;3.08;74.17;100265.56;4958863;28;46639;-69
2021/12/09 01:30:18;;;;;;;;;3.75;1.00;;;;;3.11;73.91;100276.16;4964834;28;45727;-69
2021/12/09 01:32:51;;;;;;;;;1.00;1.00;;;;;3.13;74.34;100271.88;4958906;28;45237;-69
2021/12/09 01:35:20;;;;;;;;;3.50;2.00;;;;;3.09;74.05;100265.63;4957524;28;47396;-70
2021/12/09 01:37:46;;;;;;;;;1.00;1.00;;;;;3.08;74.28;100258.66;4972929;28;47576;-69
2021/12/09 01:40:13;;;;;;;;;0.50;0.50;;;;;3.12;74.13;100260.56;4970886;28;45370;-69
2021/12/09 01:42:38;;;;;;;;;0.00;0.00;;;;;3.04;73.28;100251.47;4976972;28;45402;-69
2021/12/09 01:45:05;;;;;;;;;1.00;1.00;;;;;3.12;73.58;100268.38;4977217;28;45229;-69
2021/12/09 01:47:31;;;;;;;;;1.50;0.00;;;;;3.10;74.51;100264.81;5033325;28;45683;-69
2021/12/09 01:49:56;;;;;;;;;2.00;1.00;;;;;3.11;73.58;100261.41;4958689;28;45191;-69
2021/12/09 01:52:22;;;;;;;;;1.00;1.00;;;;;3.24;73.81;100281.09;4958486;28;45257;-69
2021/12/09 01:54:47;;;;;;;;;1.00;0.00;;;;;3.24;74.01;100277.59;4958641;28;45534;-69
2021/12/09 01:57:13;;;;;;;;;1.50;1.00;;;;;3.14;73.98;100264.13;4958374;28;46176;-69
2021/12/09 01:59:38;;;;;;;;;0.00;0.00;;;;;3.26;73.89;100270.75;4958607;28;45224;-69
2021/12/09 02:02:03;;;;;;;;;3.00;0.00;;;;;3.22;73.76;100266.19;4958350;28;45360;-69
2021/12/09 02:04:29;;;;;;;;;2.00;0.00;;;;;3.28;73.41;100277.81;4966036;28;47108;-69
2021/12/09 02:06:54;;;;;;;;;1.75;1.00;;;;;3.32;73.83;100282.34;4958126;28;45367;-69
2021/12/09 02:09:20;;;;;;;;;1.25;0.25;;;;;3.33;73.47;100283.22;4978405;28;45335;-69
2021/12/09 02:11:46;;;;;;;;;2.00;2.00;;;;;3.38;73.35;100291.28;4972423;28;45702;-69
2021/12/09 02:14:11;;;;;;;;;4.50;1.00;;;;;3.43;73.83;100287.16;4958446;28;45336;-69
2021/12/09 02:16:37;;;;;;;;;2.00;0.00;;;;;3.42;73.42;100285.34;4971708;28;47004;-69
2021/12/09 02:19:04;;;;;;;;;0.00;0.00;;;;;3.35;73.14;100273.75;4958637;28;45272;-69
2021/12/09 02:21:33;;;;;;;;;1.00;1.00;;;;;3.35;73.36;100265.91;4958502;28;45347;-69
2021/12/09 02:24:06;;;;;;;;;0.50;0.00;;;;;3.44;73.21;100283.72;4958261;28;45376;-69
2021/12/09 02:26:40;;;;;;;;;1.25;1.00;;;;;3.45;73.38;100277.69;4964934;28;45717;-69
2021/12/09 02:29:08;;;;;;;;;7.25;1.00;;;;;3.51;73.35;100285.78;4977566;28;45235;-69
2021/12/09 02:31:34;;;;;;;;;3.00;1.00;;;;;3.42;73.25;100268.00;4977742;28;45322;-69
2021/12/09 02:34:01;;;;;;;;;2.00;0.50;;;;;3.34;72.90;100256.31;4977682;28;45482;-69
2021/12/09 02:36:30;;;;;;;;;3.25;1.00;;;;;3.54;73.20;100276.34;4967715;28;45449;-70
2021/12/09 02:39:17;;;;;;;;;2.00;1.00;;;;;3.58;73.40;100280.00;4958126;28;45562;-69
2021/12/09 02:41:45;;;;;;;;;0.25;0.00;;;;;3.54;73.23;100271.13;4968265;28;45258;-69
2021/12/09 02:44:17;;;;;;;;;0.50;0.50;;;;;3.57;73.34;100273.00;4977715;28;45414;-69
2021/12/09 02:46:42;;;;;;;;;1.00;0.00;;;;;3.33;73.07;100225.75;5032191;28;48137;-69
2021/12/09 02:49:14;;;;;;;;;2.00;0.00;;;;;3.61;73.39;100271.38;4960995;27;45170;-69
2021/12/09 02:51:40;;;;;;;;;2.50;0.00;;;;;3.58;73.27;100275.69;4958175;28;45578;-69
2021/12/09 02:54:08;;;;;;;;;0.00;0.00;;;;;3.54;73.03;100262.41;4957928;28;45441;-70
2021/12/09 02:56:33;;;;;;;;;0.00;0.00;;;;;3.64;73.29;100274.13;4956588;28;45475;-69
2021/12/09 02:58:58;;;;;;;;;0.75;0.75;;;;;3.64;73.34;100284.59;4958042;28;45332;-69
2021/12/09 03:01:33;;;;;;;;;1.50;0.00;;;;;3.69;73.38;100299.66;4957873;28;45257;-69
2021/12/09 03:04:00;;;;;;;;;1.00;1.00;;;;;3.67;73.43;100289.94;4961491;28;47447;-69
2021/12/09 03:06:36;;;;;;;;;0.50;0.00;;;;;3.70;73.16;100300.56;4967891;28;47181;-69
2021/12/09 03:09:15;;;;;;;;;1.50;1.50;;;;;3.67;73.38;100296.09;4976699;28;45402;-69
2021/12/09 03:11:43;;;;;;;;;1.00;0.00;;;;;3.72;72.99;100301.50;4956522;28;45344;-69
2021/12/09 03:14:09;;;;;;;;;1.00;1.00;;;;;3.68;72.91;100284.81;4956429;28;46313;-69
2021/12/09 03:16:35;;;;;;;;;0.00;0.00;;;;;3.62;72.55;100273.19;4957389;28;46460;-69
2021/12/09 03:19:05;;;;;;;;;0.50;0.00;;;;;3.72;72.59;100280.59;4957647;28;44682;-70
2021/12/09 03:21:34;;;;;;;;;2.25;1.25;;;;;3.67;72.93;100272.56;4957552;28;45247;-69
2021/12/09 03:24:02;;;;;;;;;0.00;0.00;;;;;3.82;72.70;100290.63;4957351;28;45348;-70
2021/12/09 03:26:31;;;;;;;;;2.00;1.50;;;;;3.81;72.65;100283.63;4957557;28;45514;-69
2021/12/09 03:29:00;;;;;;;;;1.75;0.25;;;;;3.86;72.75;100289.03;4966771;28;45188;-69
2021/12/09 03:31:26;;;;;;;;;1.00;0.00;;;;;3.92;72.86;100297.13;4957455;28;45388;-69
2021/12/09 03:33:52;;;;;;;;;0.50;0.50;;;;;3.89;72.62;100297.88;4957498;28;44801;-69
2021/12/09 03:36:17;;;;;;;;;1.75;1.75;;;;;3.83;72.86;100292.41;4957261;28;45067;-69
2021/12/09 03:38:43;;;;;;;;;1.00;1.00;;;;;3.92;73.09;100299.75;4957175;28;45396;-69
2021/12/09 03:41:09;;;;;;;;;0.00;0.00;;;;;3.99;72.86;100312.25;4964334;28;45351;-69
2021/12/09 03:43:35;;;;;;;;;1.25;0.00;;;;;3.88;72.65;100285.66;4976733;28;45577;-69
2021/12/09 03:46:00;;;;;;;;;1.00;1.00;;;;;4.02;72.61;100308.06;5003568;28;45746;-69
2021/12/09 03:48:28;;;;;;;;;2.00;1.00;;;;;3.96;73.13;100293.84;4997805;27;45247;-70
2021/12/09 03:50:54;;;;;;;;;0.75;0.75;;;;;4.03;72.96;100302.00;4957554;28;45319;-69
2021/12/09 03:53:20;;;;;;;;;0.00;0.00;;;;;4.10;72.38;100316.22;4956989;28;45425;-70
2021/12/09 03:55:47;;;;;;;;;1.00;1.00;;;;;4.10;72.48;100315.34;4957249;28;45659;-69
2021/12/09 03:58:12;;;;;;;;;0.75;0.75;;;;;4.14;72.81;100322.47;4957031;28;45363;-69
2021/12/09 04:00:38;;;;;;;;;1.00;1.00;;;;;4.14;72.34;100328.59;4957148;28;45264;-69
2021/12/09 04:03:03;;;;;;;;;2.25;1.50;;;;;4.15;72.62;100325.16;4956821;28;45531;-69
2021/12/09 04:05:29;;;;;;;;;1.00;1.00;;;;;4.08;72.43;100317.00;4957011;28;45110;-69
2021/12/09 04:07:54;;;;;;;;;2.00;0.00;;;;;4.05;72.24;100312.50;4988055;28;46093;-69
2021/12/09 04:10:20;;;;;;;;;1.50;0.00;;;;;4.07;72.38;100307.38;4960087;28;44960;-69
2021/12/09 04:12:46;;;;;;;;;0.25;0.25;;;;;4.07;72.58;100307.38;4968536;28;47064;-69
2021/12/09 04:15:12;;;;;;;;;0.50;0.50;;;;;4.13;72.13;100323.31;4959493;28;46327;-69
2021/12/09 04:17:37;;;;;;;;;2.75;1.00;;;;;4.14;72.38;100325.97;4968619;28;45306;-69
2021/12/09 04:20:08;;;;;;;;;2.75;1.00;;;;;4.14;72.31;100325.09;4958898;28;45173;-69
2021/12/09 04:22:34;;;;;;;;;0.50;0.00;;;;;4.10;72.12;100329.31;4970367;28;45497;-69
2021/12/09 04:25:00;;;;;;;;;1.25;1.00;;;;;4.09;72.10;100321.38;4979226;28;45703;-69
2021/12/09 04:27:26;;;;;;;;;0.75;0.75;;;;;4.14;72.48;100328.59;4979216;28;45309;-69
2021/12/09 04:29:53;;;;;;;;;2.00;1.75;;;;;4.20;72.09;100336.72;4979301;28;45225;-69
2021/12/09 04:32:19;;;;;;;;;0.50;0.50;;;;;4.15;72.12;100326.91;4979045;28;45385;-69
2021/12/09 04:34:44;;;;;;;;;4.25;1.00;;;;;4.22;72.56;100334.16;4979186;28;45366;-69
2021/12/09 04:37:10;;;;;;;;;4.50;2.00;;;;;4.23;72.51;100334.22;4979171;28;45271;-69
2021/12/09 04:39:36;;;;;;;;;3.50;0.75;;;;;4.21;71.99;100324.53;4972077;28;45319;-69
2021/12/09 04:42:02;;;;;;;;;1.00;1.00;;;;;4.16;72.06;100310.34;4959588;28;45280;-69
2021/12/09 04:44:28;;;;;;;;;5.75;2.00;;;;;4.26;72.21;100326.50;4959623;28;45320;-69
2021/12/09 04:46:54;;;;;;;;;1.00;1.00;;;;;4.29;72.49;100332.72;5031982;28;45422;-69
2021/12/09 04:49:20;;;;;;;;;1.75;1.00;;;;;4.26;71.94;100317.78;4959754;28;45422;-69
2021/12/09 04:51:45;;;;;;;;;1.75;1.00;;;;;4.32;72.02;100323.25;4968573;28;46993;-69
2021/12/09 04:54:10;;;;;;;;;0.50;0.00;;;;;4.25;71.57;100305.50;4959428;28;46283;-70
2021/12/09 04:56:36;;;;;;;;;2.00;1.00;;;;;4.28;72.22;100320.44;4959393;28;45260;-70
2021/12/09 04:59:02;;;;;;;;;1.00;0.00;;;;;4.39;71.83;100338.38;4959678;28;45350;-69
2021/12/09 05:01:28;;;;;;;;;1.00;0.00;;;;;4.34;71.83;100332.06;4959213;28;45178;-69
2021/12/09 05:03:53;;;;;;;;;1.75;1.25;;;;;4.39;71.64;100333.13;4959298;28;45698;-70
2021/12/09 05:06:19;;;;;;;;;0.00;0.00;;;;;4.41;71.38;100322.75;4959341;28;45285;-69
2021/12/09 05:08:47;;;;;;;;;0.00;0.00;;;;;4.34;71.43;100310.22;4982648;28;45665;-69
2021/12/09 05:12:00;;;;;;;;;0.00;0.00;;;;;4.42;71.81;100320.16;4968287;28;46276;-69
2021/12/09 05:14:01;;;;;;;;;3.00;1.00;;;;;4.43;71.48;100316.75;4955409;28;46161;-69
2021/12/09 05:16:27;;;;;;;;;1.00;1.00;;;;;4.43;72.31;100313.25;4959084;28;45256;-69
2021/12/09 05:18:58;;;;;;;;;1.00;1.00;;;;;4.51;71.74;100321.38;4958464;28;45227;-70
2021/12/09 05:21:42;;;;;;;;;1.50;1.00;;;;;4.52;71.37;100331.03;4957829;28;46332;-70
2021/12/09 05:24:10;;;;;;;;;3.50;2.00;;;;;4.55;71.29;100336.41;4959023;28;45519;-70
2021/12/09 05:26:58;;;;;;;;;2.00;1.00;;;;;4.43;71.41;100314.13;4959111;28;45293;-70
2021/12/09 05:29:28;;;;;;;;;1.00;1.00;;;;;4.53;71.19;100327.56;4958909;28;45409;-70
2021/12/09 05:32:11;;;;;;;;;2.25;1.25;;;;;4.46;71.70;100319.47;4958851;28;45604;-70
2021/12/09 05:34:48;;;;;;;;;2.00;1.25;;;;;4.49;71.36;100319.59;4973671;28;47454;-70
2021/12/09 05:37:22;;;;;;;;;2.00;1.00;;;;;4.56;71.34;100336.44;4970676;28;45361;-69
2021/12/09 05:39:48;;;;;;;;;3.00;1.75;;;;;4.53;71.44;100336.31;4969737;28;45289;-69
2021/12/09 05:42:16;;;;;;;;;2.00;1.00;;;;;4.56;71.67;100339.06;4958598;28;45680;-70
2021/12/09 05:44:42;;;;;;;;;2.00;2.00;;;;;4.58;71.93;100336.50;4958923;28;45510;-70
2021/12/09 05:47:09;;;;;;;;;4.50;1.00;;;;;4.62;71.32;100343.66;5033102;28;45157;-70
2021/12/09 05:49:42;;;;;;;;;4.00;1.00;;;;;4.62;71.40;100343.66;4957726;28;45297;-70
2021/12/09 05:52:08;;;;;;;;;1.00;1.00;;;;;4.49;71.08;100317.00;4958687;28;45234;-70
2021/12/09 05:54:34;;;;;;;;;2.50;1.00;;;;;4.71;71.45;100357.13;4958611;28;45244;-70
2021/12/09 05:57:00;;;;;;;;;4.50;2.00;;;;;4.69;71.75;100358.78;4958549;28;45419;-70
2021/12/09 05:59:26;;;;;;;;;1.50;1.00;;;;;4.71;71.29;100352.78;4970218;28;45854;-70
2021/12/09 06:01:52;;;;;;;;;3.00;1.00;;;;;4.72;70.75;100359.78;4958337;28;45374;-70
2021/12/09 06:04:17;;;;;;;;;6.75;1.00;;;;;4.64;70.54;100349.84;4964147;28;47071;-70
2021/12/09 06:06:43;;;;;;;;;1.50;1.00;;;;;4.74;71.28;100356.38;4962307;28;45364;-70
2021/12/09 06:09:10;;;;;;;;;2.00;2.00;;;;;4.68;70.86;100349.16;4985599;28;45327;-70
2021/12/09 06:11:36;;;;;;;;;1.00;1.00;;;;;4.69;71.08;100356.16;4958721;28;45208;-69
2021/12/09 06:14:03;;;;;;;;;0.75;0.75;;;;;4.55;70.96;100334.66;4958473;28;45322;-70
2021/12/09 06:16:28;;;;;;;;;3.50;1.25;;;;;4.67;70.42;100361.31;4958310;28;45422;-70
2021/12/09 06:18:54;;;;;;;;;4.25;2.00;;;;;4.72;70.68;100369.38;4958599;28;45417;-70
2021/12/09 06:21:22;;;;;;;;;2.00;2.00;;;;;4.63;70.76;100362.03;4958349;28;45415;-70
2021/12/09 06:23:48;;;;;;;;;1.00;1.00;;;;;4.54;71.10;100348.59;4964984;28;47402;-71
2021/12/09 06:26:14;;;;;;;;;1.00;1.00;;;;;4.62;70.85;100361.97;4981199;28;45276;-70
2021/12/09 06:28:39;;;;;;;;;2.75;2.00;;;;;4.60;70.92;100359.31;5007437;28;45254;-70
2021/12/09 06:31:06;;;;;;;;;3.00;1.75;;;;;4.65;70.82;100373.47;4960706;28;46900;-70
2021/12/09 06:33:33;;;;;;;;;2.75;2.00;;;;;4.62;70.72;100369.81;4958101;28;46546;-70
2021/12/09 06:35:59;;;;;;;;;1.75;1.75;;;;;4.53;70.74;100367.72;4957856;28;45397;-70
2021/12/09 06:38:25;;;;;;;;;1.00;0.75;;;;;4.44;71.23;100365.63;4957886;28;45280;-71
2021/12/09 06:40:51;;;;;;;;;1.75;1.75;;;;;4.48;71.10;100369.25;4961913;28;45447;-70
2021/12/09 06:43:17;;;;;;;;;5.75;3.00;;;;;4.51;70.69;100385.09;4977405;28;45343;-69
2021/12/09 06:45:43;;;;;;;;;5.50;4.00;;;;;4.42;70.98;100380.34;4983543;28;45438;-70
2021/12/09 06:48:09;;;;;;;;;3.00;2.00;;;;;4.41;70.97;100381.19;5009369;28;45252;-69
2021/12/09 06:50:35;;;;;;;;;2.00;2.00;;;;;4.36;70.77;100390.56;4962617;28;45233;-70
2021/12/09 06:53:01;;;;;;;;;1.25;1.25;;;;;4.37;71.32;100396.69;4977132;28;45494;-70
2021/12/09 06:55:27;;;;;;;;;5.25;3.00;;;;;4.03;70.95;100341.25;4957989;28;45198;-70
2021/12/09 06:57:52;;;;;;;;;6.50;2.25;;;;;4.20;71.25;100377.66;4957724;28;45237;-70
2021/12/09 07:00:24;;;;;;;;;4.50;4.50;;;;;4.23;71.12;100393.50;4955474;28;45481;-71
2021/12/09 07:02:51;;;;;;;;;3.75;2.00;;;;;4.16;71.22;100381.88;4954929;28;47266;-70
2021/12/09 07:05:18;;;;;;;;;6.00;3.50;;;;;4.28;71.27;100401.53;4971056;28;45684;-70
2021/12/09 07:07:44;;;;;;;;;2.25;2.00;;;;;4.26;71.15;100396.25;4970598;28;45626;-70
2021/12/09 07:10:11;;;;;;;;;3.00;3.00;;;;;4.19;71.34;100386.34;4964609;27;45150;-71
2021/12/09 07:12:38;;;;;;;;;19.00;17.25;;;;;4.12;71.11;100371.22;4972275;28;46817;-71
2021/12/09 07:15:06;;;;;;;;;6.25;2.50;;;;;4.08;71.18;100377.13;4964891;28;45324;-71
2021/12/09 07:17:32;;;;;;;;;2.00;2.00;;;;;4.15;71.25;100400.13;4965478;28;45170;-72
2021/12/09 07:19:57;;;;;;;;;2.00;2.00;;;;;4.19;71.27;100405.53;4964595;28;45224;-71
2021/12/09 07:22:23;;;;;;;;;2.25;1.25;;;;;4.11;70.93;100395.56;4964782;28;47051;-72
2021/12/09 07:24:48;;;;;;;;;3.00;3.00;;;;;4.08;71.32;100395.44;4963478;28;45187;-72
2021/12/09 07:27:14;;;;;;;;;5.00;5.00;;;;;4.03;71.05;100388.31;4968234;28;45121;-72
2021/12/09 07:29:39;;;;;;;;;2.00;2.00;;;;;4.01;71.18;100383.84;4967469;28;45248;-72
2021/12/09 07:32:05;;;;;;;;;4.50;2.00;;;;;4.06;70.97;100395.38;4964441;28;45385;-72
2021/12/09 07:34:30;;;;;;;;;6.00;5.00;;;;;4.09;71.47;100402.44;4965382;28;45338;-72
2021/12/09 07:37:01;;;;;;;;;3.50;3.50;;;;;3.80;70.93;100348.06;4967700;28;45266;-72
2021/12/09 07:39:27;;;;;;;;;2.00;2.00;;;;;4.12;71.02;100400.00;4965965;28;45566;-72
2021/12/09 07:41:53;;;;;;;;;5.75;4.50;;;;;3.95;71.49;100375.69;4964755;28;45351;-72
2021/12/09 07:44:20;;;;;;;;;6.00;3.50;;;;;4.11;71.69;100404.31;4964019;28;45827;-72
2021/12/09 07:46:48;;;;;;;;;4.75;3.50;;;;;4.03;70.97;100400.47;4978754;28;45791;-70
2021/12/09 07:49:14;;;;;;;;;6.25;4.75;;;;;4.09;71.14;100400.75;4965898;28;45311;-72
2021/12/09 07:51:40;;;;;;;;;7.00;4.50;;;;;4.04;71.42;100400.53;4966565;28;45586;-72
2021/12/09 07:54:05;;;;;;;;;6.50;4.00;;;;;3.99;71.36;100394.22;4966456;28;45332;-72
2021/12/09 07:56:31;;;;;;;;;11.00;9.25;;;;;4.00;71.13;100377.69;4966921;28;45348;-72
2021/12/09 07:58:56;;;;;;;;;8.50;5.50;;;;;4.02;71.52;100389.13;4968049;28;45438;-71
2021/12/09 08:01:21;;;;;;;;;5.00;5.00;;;;;4.06;71.19;100397.09;4969453;28;48502;-72
2021/12/09 08:03:47;;;;;;;;;5.75;3.50;;;;;4.09;71.54;100412.91;4969666;28;45292;-71
2021/12/09 08:06:14;;;;;;;;;5.00;5.00;;;;;4.07;71.67;100411.97;4969962;28;45416;-71
2021/12/09 08:08:40;;;;;;;;;9.25;6.00;;;;;4.06;71.12;100413.66;4981211;28;45320;-71
2021/12/09 08:11:07;;;;;;;;;6.00;6.00;;;;;4.14;71.10;100441.06;4968475;28;45372;-72
2021/12/09 08:13:32;;;;;;;;;3.50;3.50;;;;;4.09;71.24;100423.38;4969335;28;45544;-71
2021/12/09 08:15:59;;;;;;;;;5.00;5.00;;;;;4.06;71.42;100411.06;4967243;28;45445;-71
2021/12/09 08:18:27;;;;;;;;;7.00;6.00;;;;;4.08;71.36;100403.28;4967329;28;45378;-71
2021/12/09 08:20:56;;;;;;;;;9.00;5.75;;;;;4.19;71.50;100421.25;4959723;28;45638;-71
2021/12/09 08:23:22;;;;;;;;;5.75;5.75;;;;;4.21;70.94;100422.22;4959485;28;45334;-71
2021/12/09 08:25:48;;;;;;;;;6.25;3.50;;;;;4.16;70.78;100399.28;4959877;28;45274;-71
2021/12/09 08:28:15;;;;;;;;;5.50;5.50;;;;;4.24;71.32;100406.63;4960007;28;45356;-71
2021/12/09 08:30:40;;;;;;;;;10.25;3.50;;;;;4.22;71.00;100407.41;4969087;28;48545;-71
2021/12/09 08:33:07;;;;;;;;;8.25;5.50;;;;;4.27;70.87;100411.13;4962705;28;44845;-71
2021/12/09 08:35:33;;;;;;;;;5.00;4.00;;;;;4.28;71.05;100412.00;4959542;28;45178;-71
2021/12/09 08:37:58;;;;;;;;;8.50;6.00;;;;;4.34;70.88;100420.09;4959275;28;45301;-71
2021/12/09 08:40:26;;;;;;;;;4.75;4.75;;;;;4.24;70.91;100395.28;4960209;28;46203;-71
2021/12/09 08:42:52;;;;;;;;;6.75;5.00;;;;;4.37;71.12;100418.53;4970438;28;45386;-71
2021/12/09 08:45:19;;;;;;;;;10.00;6.00;;;;;4.39;70.74;100421.22;4958063;28;45314;-71
2021/12/09 08:47:46;;;;;;;;;5.25;3.00;;;;;4.28;70.86;100405.03;5030273;28;45280;-71
2021/12/09 08:50:15;;;;;;;;;5.25;5.00;;;;;4.35;70.60;100408.84;4969423;28;47679;-71
2021/12/09 08:52:41;;;;;;;;;11.00;5.25;;;;;4.39;70.21;100429.94;4968002;28;45343;-71
2021/12/09 08:55:08;;;;;;;;;8.00;6.00;;;;;4.47;70.58;100446.88;4961326;28;45338;-71
2021/12/09 08:57:36;;;;;;;;;4.50;3.50;;;;;4.52;70.17;100443.56;4963591;28;46330;-71
2021/12/09 09:00:05;;;;;;;;;6.50;4.50;;;;;4.46;70.51;100428.50;4959002;28;45276;-71
2021/12/09 09:02:30;;;;;;;;;3.50;3.50;;;;;4.51;70.23;100432.22;4959553;28;45327;-71
2021/12/09 09:04:57;;;;;;;;;5.00;4.50;;;;;4.57;70.45;100442.06;4959423;28;45502;-71
2021/12/09 09:07:22;;;;;;;;;7.00;5.00;;;;;4.65;70.89;100451.09;4959204;28;45304;-71
2021/12/09 09:09:48;;;;;;;;;6.50;3.00;;;;;4.58;70.20;100438.59;4992152;28;47850;-71
2021/12/09 09:12:17;;;;;;;;;9.50;3.00;;;;;4.78;70.51;100470.84;4978818;28;45267;-71
2021/12/09 09:14:42;;;;;;;;;9.50;5.50;;;;;4.73;69.71;100460.16;4978420;28;45224;-71
2021/12/09 09:17:08;;;;;;;;;5.00;3.00;;;;;4.79;70.02;100468.31;4967697;28;47542;-71
2021/12/09 09:19:34;;;;;;;;;2.75;2.75;;;;;4.83;70.21;100470.22;4959101;28;46727;-71
2021/12/09 09:22:00;;;;;;;;;4.50;2.50;;;;;4.85;69.60;100465.06;4964771;28;46403;-71
2021/12/09 09:24:26;;;;;;;;;5.00;2.50;;;;;4.89;69.84;100465.22;4958990;28;45262;-72
2021/12/09 09:26:51;;;;;;;;;7.25;2.25;;;;;4.99;69.48;100487.47;4959149;28;45429;-71
2021/12/09 09:29:16;;;;;;;;;7.25;5.00;;;;;4.90;69.32;100463.50;4958829;28;45531;-71
2021/12/09 09:31:43;;;;;;;;;4.75;2.00;;;;;5.03;69.50;100485.88;4958993;28;45413;-71
2021/12/09 09:34:11;;;;;;;;;5.00;5.00;;;;;5.06;69.39;100486.88;4959064;28;45312;-71
2021/12/09 09:36:43;;;;;;;;;2.75;2.75;;;;;5.13;69.07;100488.94;4958997;28;44572;-71
2021/12/09 09:39:17;;;;;;;;;6.75;6.00;;;;;5.15;68.99;100470.63;4957682;28;47430;-71
2021/12/09 09:41:47;;;;;;;;;10.25;6.00;;;;;5.05;68.93;100447.53;4957688;28;45286;-71
2021/12/09 09:44:16;;;;;;;;;7.50;6.00;;;;;5.29;69.06;100489.53;4958944;28;45242;-71
2021/12/09 09:46:42;;;;;;;;;3.50;3.50;;;;;5.30;68.86;100491.34;5025186;28;46213;-71
2021/12/09 09:49:08;;;;;;;;;6.50;5.00;;;;;5.23;69.06;100477.09;4978597;28;47469;-72
2021/12/09 09:51:36;;;;;;;;;3.50;3.50;;;;;5.36;68.97;100504.69;4958864;28;45355;-72
2021/12/09 09:54:04;;;;;;;;;6.00;3.00;;;;;5.45;68.50;100506.78;4958453;28;45311;-72
2021/12/09 09:56:32;;;;;;;;;5.25;5.00;;;;;5.53;68.86;100495.78;4957101;28;46069;-74
2021/12/09 09:59:08;;;;;;;;;4.00;4.00;;;;;5.66;69.00;100505.03;4965127;28;45625;-72
2021/12/09 10:01:36;;;;;;;;;5.00;5.00;;;;;5.69;68.92;100481.53;4970657;28;45511;-72
2021/12/09 10:04:12;;;;;;;;;6.00;6.00;;;;;5.96;68.23;100493.94;4966337;28;45433;-72
2021/12/09 10:06:41;;;;;;;;;3.25;3.25;;;;;5.98;67.72;100469.56;4971632;28;45548;-71
2021/12/09 10:09:08;;;;;;;;;5.75;5.75;;;;;6.16;67.33;100490.34;4979828;28;45425;-72
2021/12/09 10:11:34;;;;;;;;;6.00;6.00;;;;;6.14;67.36;100457.91;4958420;28;45351;-71
2021/12/09 10:14:10;;;;;;;;;6.25;5.25;;;;;6.51;66.38;100490.72;4958746;28;45333;-72
2021/12/09 10:16:38;;;;;;;;;6.00;4.25;;;;;6.48;66.03;100454.75;4958173;28;45327;-72
2021/12/09 10:19:15;;;;;;;;;6.25;4.25;;;;;6.80;66.86;100478.59;4965730;28;47630;-72
2021/12/09 10:21:41;;;;;;;;;5.50;4.25;;;;;6.86;65.12;100480.53;4964609;28;45442;-71
2021/12/09 10:24:07;;;;;;;;;3.25;3.00;;;;;6.88;65.54;100460.47;4977915;28;45294;-72
2021/12/09 10:26:47;;;;;;;;;5.50;3.25;;;;;7.03;66.15;100465.34;4977640;28;45359;-72
2021/12/09 10:29:17;;;;;;;;;4.00;3.50;;;;;7.05;64.90;100458.41;4974577;28;45480;-72
2021/12/09 10:31:49;;;;;;;;;3.25;2.00;;;;;7.05;66.72;100456.66;4965495;28;45534;-72
2021/12/09 10:36:42;;;;;;;;;7.25;4.00;;;;;7.04;65.97;100446.13;4967964;28;45333;-72
2021/12/09 10:39:22;;;;;;;;;3.75;2.00;;;;;6.95;65.61;100433.59;4968104;28;46976;-72
2021/12/09 10:41:49;;;;;;;;;2.50;2.50;;;;;7.04;65.05;100443.50;4964080;28;45360;-72
2021/12/09 10:44:15;;;;;;;;;6.50;3.25;;;;;7.02;66.89;100439.91;4966918;28;45423;-72
2021/12/09 10:47:06;;;;;;;;;5.00;2.75;;;;;7.03;66.78;100436.44;4978146;28;46469;-72
2021/12/09 10:49:39;;;;;;;;;3.25;2.25;;;;;6.94;66.81;100416.91;4973035;28;46341;-72
2021/12/09 10:52:24;;;;;;;;;4.50;3.25;;;;;7.04;65.55;100436.50;4968891;27;45487;-72
2021/12/09 10:54:50;;;;;;;;;7.00;4.00;;;;;7.08;65.32;100438.38;4963996;28;45380;-72
2021/12/09 10:57:31;;;;;;;;;5.50;4.00;;;;;7.01;67.04;100417.13;4966237;28;45457;-72
2021/12/09 11:00:12;;;;;;;;;3.00;3.00;;;;;7.13;65.43;100430.66;4965002;28;45417;-72
2021/12/09 11:02:56;;;;;;;;;1.50;1.50;;;;;7.10;65.87;100426.19;4967127;28;45226;-72
2021/12/09 11:05:22;;;;;;;;;2.00;2.00;;;;;7.15;64.64;100432.47;4965458;28;45235;-72
2021/12/09 11:07:47;;;;;;;;;3.00;3.00;;;;;7.22;64.58;100433.56;4970345;28;45259;-72
2021/12/09 11:10:24;;;;;;;;;6.00;3.00;;;;;7.20;65.24;100415.94;4963444;28;45159;-72
2021/12/09 11:12:56;;;;;;;;;7.00;3.25;;;;;7.33;64.77;100421.66;4972768;28;45194;-72
2021/12/09 11:15:44;;;;;;;;;6.50;3.00;;;;;7.44;65.00;100421.97;4957629;28;45253;-72
2021/12/09 11:18:35;;;;;;;;;6.00;4.00;;;;;7.51;65.42;100420.44;4956269;28;45253;-71
2021/12/09 11:21:06;;;;;;;;;2.25;2.00;;;;;7.43;63.96;100393.03;4954133;28;45555;-72
2021/12/09 11:23:34;;;;;;;;;5.25;3.00;;;;;7.61;63.93;100417.22;4957634;28;45426;-72
2021/12/09 11:26:18;;;;;;;;;2.25;1.50;;;;;7.67;64.31;100414.78;4968961;28;45277;-72
2021/12/09 11:28:56;;;;;;;;;3.00;3.00;;;;;7.67;64.18;100417.41;4956414;28;46541;-72
2021/12/09 11:31:24;;;;;;;;;3.00;1.75;;;;;7.60;63.44;100410.19;4963887;28;46600;-72
2021/12/09 11:33:57;;;;;;;;;6.00;2.75;;;;;7.63;64.45;100399.75;4961993;28;45191;-72
2021/12/09 11:36:44;;;;;;;;;1.75;1.75;;;;;7.61;64.29;100397.06;4960742;28;44813;-72
2021/12/09 11:39:16;;;;;;;;;4.00;2.75;;;;;7.76;64.13;100401.03;4957059;28;45368;-73
2021/12/09 11:41:43;;;;;;;;;2.00;1.00;;;;;7.83;64.29;100411.75;4966900;28;47028;-72
2021/12/09 11:44:10;;;;;;;;;2.00;2.00;;;;;7.86;64.22;100405.69;4971811;28;45468;-72
2021/12/09 11:46:37;;;;;;;;;6.00;2.00;;;;;7.86;63.61;100403.06;5026740;28;45491;-72
2021/12/09 11:49:03;;;;;;;;;2.00;1.00;;;;;7.83;63.99;100387.19;4964739;27;45301;-72
2021/12/09 11:51:29;;;;;;;;;2.00;2.00;;;;;7.84;62.95;100395.13;4955849;28;46451;-72